sensor_id;sensor_type;location;lat;lon;timestamp;temperature;humidity
4985;DHT22;2509;49.902;8.600;2023-03-03T00:01:35;4.10;99.90
4985;DHT22;2509;49.902;8.600;2023-03-03T00:04:38;4.10;99.90
4985;DHT22;2509;49.902;8.600;2023-03-03T00:07:42;4.10;99.90
4985;DHT22;2509;49.902;8.600;2023-03-03T00:10:44;4.10;99.90
4985;DHT22;2509;49.902;8.600;2023-03-03T00:13:48;4.00;99.90
4985;DHT22;2509;49.902;8.600;2023-03-03T00:16:50;3.90;99.90
4985;DHT22;2509;49.902;8.600;2023-03-03T00:19:54;3.80;99.90
4985;DHT22;2509;49.902;8.600;2023-03-03T00:22:59;3.90;99.90
4985;DHT22;2509;49.902;8.600;2023-03-03T00:26:15;3.90;99.90
4985;DHT22;2509;49.902;8.600;2023-03-03T00:29:30;3.90;99.90
4985;DHT22;2509;49.902;8.600;2023-03-03T00:32:39;3.80;99.90
4985;DHT22;2509;49.902;8.600;2023-03-03T00:35:44;3.80;99.90
4985;DHT22;2509;49.902;8.600;2023-03-03T00:38:47;3.80;99.90
4985;DHT22;2509;49.902;8.600;2023-03-03T00:41:49;3.70;99.90
4985;DHT22;2509;49.902;8.600;2023-03-03T00:44:55;3.70;99.90
4985;DHT22;2509;49.902;8.600;2023-03-03T00:48:20;3.60;99.90
4985;DHT22;2509;49.902;8.600;2023-03-03T00:51:28;3.60;99.90
4985;DHT22;2509;49.902;8.600;2023-03-03T00:54:30;3.50;99.90
4985;DHT22;2509;49.902;8.600;2023-03-03T00:57:32;3.50;99.90
4985;DHT22;2509;49.902;8.600;2023-03-03T01:00:35;3.50;99.90
4985;DHT22;2509;49.902;8.600;2023-03-03T01:03:37;3.50;99.90
4985;DHT22;2509;49.902;8.600;2023-03-03T01:06:40;3.40;99.90
4985;DHT22;2509;49.902;8.600;2023-03-03T01:09:42;3.40;99.90
4985;DHT22;2509;49.902;8.600;2023-03-03T01:12:44;3.50;99.90
4985;DHT22;2509;49.902;8.600;2023-03-03T01:15:46;3.50;99.90
4985;DHT22;2509;49.902;8.600;2023-03-03T01:18:48;3.50;99.90
4985;DHT22;2509;49.902;8.600;2023-03-03T01:21:51;3.50;99.90
4985;DHT22;2509;49.902;8.600;2023-03-03T01:24:53;3.50;99.90
4985;DHT22;2509;49.902;8.600;2023-03-03T01:27:55;3.40;99.90
4985;DHT22;2509;49.902;8.600;2023-03-03T01:31:00;3.40;99.90
4985;DHT22;2509;49.902;8.600;2023-03-03T01:34:02;3.30;99.90
4985;DHT22;2509;49.902;8.600;2023-03-03T01:37:05;3.30;99.90
4985;DHT22;2509;49.902;8.600;2023-03-03T01:40:12;3.30;99.90
4985;DHT22;2509;49.902;8.600;2023-03-03T01:43:14;3.30;99.90
4985;DHT22;2509;49.902;8.600;2023-03-03T01:46:35;3.10;99.90
4985;DHT22;2509;49.902;8.600;2023-03-03T01:49:44;3.10;99.90
4985;DHT22;2509;49.902;8.600;2023-03-03T01:52:51;3.10;99.90
4985;DHT22;2509;49.902;8.600;2023-03-03T01:55:53;3.10;99.90
4985;DHT22;2509;49.902;8.600;2023-03-03T01:58:59;3.00;99.90
4985;DHT22;2509;49.902;8.600;2023-03-03T02:02:02;3.00;99.90
4985;DHT22;2509;49.902;8.600;2023-03-03T02:05:05;3.10;99.90
4985;DHT22;2509;49.902;8.600;2023-03-03T02:08:11;3.10;99.90
4985;DHT22;2509;49.902;8.600;2023-03-03T02:11:16;3.00;99.90
4985;DHT22;2509;49.902;8.600;2023-03-03T02:14:19;3.00;99.90
4985;DHT22;2509;49.902;8.600;2023-03-03T02:17:21;2.90;99.90
4985;DHT22;2509;49.902;8.600;2023-03-03T02:20:31;2.90;99.90
4985;DHT22;2509;49.902;8.600;2023-03-03T02:23:47;2.80;99.90
4985;DHT22;2509;49.902;8.600;2023-03-03T02:26:52;2.80;99.90
4985;DHT22;2509;49.902;8.600;2023-03-03T02:29:54;2.80;99.90
4985;DHT22;2509;49.902;8.600;2023-03-03T02:32:56;2.70;99.90
4985;DHT22;2509;49.902;8.600;2023-03-03T02:35:57;2.70;99.90
4985;DHT22;2509;49.902;8.600;2023-03-03T02:39:03;2.70;99.90
4985;DHT22;2509;49.902;8.600;2023-03-03T02:42:12;2.80;99.90
4985;DHT22;2509;49.902;8.600;2023-03-03T02:45:15;2.80;99.90
4985;DHT22;2509;49.902;8.600;2023-03-03T02:48:17;2.70;99.90
4985;DHT22;2509;49.902;8.600;2023-03-03T02:51:19;2.70;99.90
4985;DHT22;2509;49.902;8.600;2023-03-03T02:54:22;2.70;99.90
4985;DHT22;2509;49.902;8.600;2023-03-03T02:57:26;2.60;99.90
4985;DHT22;2509;49.902;8.600;2023-03-03T03:00:28;2.60;99.90
4985;DHT22;2509;49.902;8.600;2023-03-03T03:03:30;2.60;99.90
4985;DHT22;2509;49.902;8.600;2023-03-03T03:06:31;2.50;99.90
4985;DHT22;2509;49.902;8.600;2023-03-03T03:09:33;2.50;99.90
4985;DHT22;2509;49.902;8.600;2023-03-03T03:12:36;2.50;99.90
4985;DHT22;2509;49.902;8.600;2023-03-03T03:15:38;2.50;99.90
4985;DHT22;2509;49.902;8.600;2023-03-03T03:18:40;2.50;99.90
4985;DHT22;2509;49.902;8.600;2023-03-03T03:21:42;2.50;99.90
4985;DHT22;2509;49.902;8.600;2023-03-03T03:24:44;2.50;99.90
4985;DHT22;2509;49.902;8.600;2023-03-03T03:27:47;2.40;99.90
4985;DHT22;2509;49.902;8.600;2023-03-03T03:30:50;2.40;99.90
4985;DHT22;2509;49.902;8.600;2023-03-03T03:33:52;2.40;99.90
4985;DHT22;2509;49.902;8.600;2023-03-03T03:36:54;2.40;99.90
4985;DHT22;2509;49.902;8.600;2023-03-03T03:39:55;2.40;99.90
4985;DHT22;2509;49.902;8.600;2023-03-03T03:42:58;2.30;99.90
4985;DHT22;2509;49.902;8.600;2023-03-03T03:46:00;2.30;99.90
4985;DHT22;2509;49.902;8.600;2023-03-03T03:49:02;2.20;99.90
4985;DHT22;2509;49.902;8.600;2023-03-03T03:52:04;2.10;99.90
4985;DHT22;2509;49.902;8.600;2023-03-03T03:55:06;2.10;99.90
4985;DHT22;2509;49.902;8.600;2023-03-03T03:58:11;2.10;99.90
4985;DHT22;2509;49.902;8.600;2023-03-03T04:01:13;2.10;99.90
4985;DHT22;2509;49.902;8.600;2023-03-03T04:04:15;2.10;99.90
4985;DHT22;2509;49.902;8.600;2023-03-03T04:07:16;2.00;99.90
4985;DHT22;2509;49.902;8.600;2023-03-03T04:10:18;2.00;99.90
4985;DHT22;2509;49.902;8.600;2023-03-03T04:13:21;2.00;99.90
4985;DHT22;2509;49.902;8.600;2023-03-03T04:16:23;2.00;99.90
4985;DHT22;2509;49.902;8.600;2023-03-03T04:19:25;1.90;99.90
4985;DHT22;2509;49.902;8.600;2023-03-03T04:22:28;1.90;99.90
4985;DHT22;2509;49.902;8.600;2023-03-03T04:25:33;1.80;99.90
4985;DHT22;2509;49.902;8.600;2023-03-03T04:28:36;1.90;99.90
4985;DHT22;2509;49.902;8.600;2023-03-03T04:31:38;1.90;99.90
4985;DHT22;2509;49.902;8.600;2023-03-03T04:34:40;1.90;99.90
4985;DHT22;2509;49.902;8.600;2023-03-03T04:37:41;1.90;99.90
4985;DHT22;2509;49.902;8.600;2023-03-03T04:40:43;2.00;99.90
4985;DHT22;2509;49.902;8.600;2023-03-03T04:43:47;2.00;99.90
4985;DHT22;2509;49.902;8.600;2023-03-03T04:46:48;1.90;99.90
4985;DHT22;2509;49.902;8.600;2023-03-03T04:49:50;1.90;99.90
4985;DHT22;2509;49.902;8.600;2023-03-03T04:52:52;1.90;99.90
4985;DHT22;2509;49.902;8.600;2023-03-03T04:55:54;1.90;99.90
4985;DHT22;2509;49.902;8.600;2023-03-03T04:58:57;1.90;99.90
4985;DHT22;2509;49.902;8.600;2023-03-03T05:01:59;1.80;99.90
4985;DHT22;2509;49.902;8.600;2023-03-03T05:05:01;1.90;99.90
4985;DHT22;2509;49.902;8.600;2023-03-03T05:08:03;1.80;99.90
4985;DHT22;2509;49.902;8.600;2023-03-03T05:11:05;1.80;99.90
4985;DHT22;2509;49.902;8.600;2023-03-03T05:14:08;1.80;99.90
4985;DHT22;2509;49.902;8.600;2023-03-03T05:17:10;1.80;99.90
4985;DHT22;2509;49.902;8.600;2023-03-03T05:20:12;1.80;99.90
4985;DHT22;2509;49.902;8.600;2023-03-03T05:23:14;1.80;99.90
4985;DHT22;2509;49.902;8.600;2023-03-03T05:26:16;1.80;99.90
4985;DHT22;2509;49.902;8.600;2023-03-03T05:29:19;1.80;99.90
4985;DHT22;2509;49.902;8.600;2023-03-03T05:32:21;1.80;99.90
4985;DHT22;2509;49.902;8.600;2023-03-03T05:35:23;1.70;99.90
4985;DHT22;2509;49.902;8.600;2023-03-03T05:38:25;1.70;99.90
4985;DHT22;2509;49.902;8.600;2023-03-03T05:41:26;1.60;99.90
4985;DHT22;2509;49.902;8.600;2023-03-03T05:44:30;1.60;99.90
4985;DHT22;2509;49.902;8.600;2023-03-03T05:47:32;1.50;99.90
4985;DHT22;2509;49.902;8.600;2023-03-03T05:50:34;1.50;99.90
4985;DHT22;2509;49.902;8.600;2023-03-03T05:53:36;1.50;99.90
4985;DHT22;2509;49.902;8.600;2023-03-03T05:56:38;1.50;99.90
4985;DHT22;2509;49.902;8.600;2023-03-03T05:59:41;1.50;99.90
4985;DHT22;2509;49.902;8.600;2023-03-03T06:02:43;1.40;99.90
4985;DHT22;2509;49.902;8.600;2023-03-03T06:05:45;1.40;99.90
4985;DHT22;2509;49.902;8.600;2023-03-03T06:08:47;1.40;99.90
4985;DHT22;2509;49.902;8.600;2023-03-03T06:11:48;1.40;99.90
4985;DHT22;2509;49.902;8.600;2023-03-03T06:14:53;1.40;99.90
4985;DHT22;2509;49.902;8.600;2023-03-03T06:17:55;1.30;99.90
4985;DHT22;2509;49.902;8.600;2023-03-03T06:20:57;1.40;99.90
4985;DHT22;2509;49.902;8.600;2023-03-03T06:23:59;1.30;99.90
4985;DHT22;2509;49.902;8.600;2023-03-03T06:27:01;1.30;99.90
4985;DHT22;2509;49.902;8.600;2023-03-03T06:30:17;1.30;99.90
4985;DHT22;2509;49.902;8.600;2023-03-03T06:33:27;1.30;99.90
4985;DHT22;2509;49.902;8.600;2023-03-03T06:36:29;1.30;99.90
4985;DHT22;2509;49.902;8.600;2023-03-03T06:39:32;1.30;99.90
4985;DHT22;2509;49.902;8.600;2023-03-03T06:42:34;1.20;99.90
4985;DHT22;2509;49.902;8.600;2023-03-03T06:45:37;1.20;99.90
4985;DHT22;2509;49.902;8.600;2023-03-03T06:48:39;1.30;99.90
4985;DHT22;2509;49.902;8.600;2023-03-03T06:51:41;1.30;99.90
4985;DHT22;2509;49.902;8.600;2023-03-03T06:54:44;1.30;99.90
4985;DHT22;2509;49.902;8.600;2023-03-03T06:57:46;1.30;99.90
4985;DHT22;2509;49.902;8.600;2023-03-03T07:00:53;1.30;99.90
4985;DHT22;2509;49.902;8.600;2023-03-03T07:03:55;1.40;99.90
4985;DHT22;2509;49.902;8.600;2023-03-03T07:06:59;1.30;99.90
4985;DHT22;2509;49.902;8.600;2023-03-03T07:10:10;1.40;99.90
4985;DHT22;2509;49.902;8.600;2023-03-03T07:13:19;1.50;99.90
4985;DHT22;2509;49.902;8.600;2023-03-03T07:16:24;1.40;99.90
4985;DHT22;2509;49.902;8.600;2023-03-03T07:19:31;1.50;99.90
4985;DHT22;2509;49.902;8.600;2023-03-03T07:22:34;1.60;99.90
4985;DHT22;2509;49.902;8.600;2023-03-03T07:25:35;1.70;99.90
4985;DHT22;2509;49.902;8.600;2023-03-03T07:28:40;1.80;99.90
4985;DHT22;2509;49.902;8.600;2023-03-03T07:31:45;1.90;99.90
4985;DHT22;2509;49.902;8.600;2023-03-03T07:34:50;1.90;99.90
4985;DHT22;2509;49.902;8.600;2023-03-03T07:37:52;1.90;99.90
4985;DHT22;2509;49.902;8.600;2023-03-03T07:40:55;2.10;99.90
4985;DHT22;2509;49.902;8.600;2023-03-03T07:44:01;2.20;99.90
4985;DHT22;2509;49.902;8.600;2023-03-03T07:47:17;2.20;99.90
4985;DHT22;2509;49.902;8.600;2023-03-03T07:50:22;2.30;99.90
4985;DHT22;2509;49.902;8.600;2023-03-03T07:53:26;2.40;99.90
4985;DHT22;2509;49.902;8.600;2023-03-03T07:56:33;2.50;99.90
4985;DHT22;2509;49.902;8.600;2023-03-03T07:59:36;2.60;99.90
4985;DHT22;2509;49.902;8.600;2023-03-03T08:02:42;2.70;99.90
4985;DHT22;2509;49.902;8.600;2023-03-03T08:05:46;2.80;99.90
4985;DHT22;2509;49.902;8.600;2023-03-03T08:08:48;3.00;99.90
4985;DHT22;2509;49.902;8.600;2023-03-03T08:11:52;3.10;99.90
4985;DHT22;2509;49.902;8.600;2023-03-03T08:14:57;3.10;99.90
4985;DHT22;2509;49.902;8.600;2023-03-03T08:18:19;3.20;99.90
4985;DHT22;2509;49.902;8.600;2023-03-03T08:21:23;3.40;99.90
4985;DHT22;2509;49.902;8.600;2023-03-03T08:24:25;3.40;99.90
4985;DHT22;2509;49.902;8.600;2023-03-03T08:27:27;3.40;99.90
4985;DHT22;2509;49.902;8.600;2023-03-03T08:30:29;3.50;99.90
4985;DHT22;2509;49.902;8.600;2023-03-03T08:33:33;3.60;99.90
4985;DHT22;2509;49.902;8.600;2023-03-03T08:36:34;3.70;99.90
4985;DHT22;2509;49.902;8.600;2023-03-03T08:39:36;3.70;99.90
4985;DHT22;2509;49.902;8.600;2023-03-03T08:42:38;3.60;99.90
4985;DHT22;2509;49.902;8.600;2023-03-03T08:45:40;3.80;99.90
4985;DHT22;2509;49.902;8.600;2023-03-03T08:48:43;4.10;99.90
4985;DHT22;2509;49.902;8.600;2023-03-03T08:51:45;4.30;99.90
4985;DHT22;2509;49.902;8.600;2023-03-03T08:54:46;4.50;99.90
4985;DHT22;2509;49.902;8.600;2023-03-03T08:57:48;4.70;99.90
4985;DHT22;2509;49.902;8.600;2023-03-03T09:00:50;4.60;99.90
4985;DHT22;2509;49.902;8.600;2023-03-03T09:03:53;4.60;99.90
4985;DHT22;2509;49.902;8.600;2023-03-03T09:06:55;4.80;99.90
4985;DHT22;2509;49.902;8.600;2023-03-03T09:09:57;5.00;99.90
4985;DHT22;2509;49.902;8.600;2023-03-03T09:13:02;5.20;99.90
4985;DHT22;2509;49.902;8.600;2023-03-03T09:16:12;5.40;99.90
4985;DHT22;2509;49.902;8.600;2023-03-03T09:19:23;5.60;99.90
4985;DHT22;2509;49.902;8.600;2023-03-03T09:22:25;5.60;99.90
4985;DHT22;2509;49.902;8.600;2023-03-03T09:25:32;5.70;99.90
4985;DHT22;2509;49.902;8.600;2023-03-03T09:28:34;5.90;99.90
4985;DHT22;2509;49.902;8.600;2023-03-03T09:31:39;6.20;99.90
4985;DHT22;2509;49.902;8.600;2023-03-03T09:34:45;6.30;99.90
4985;DHT22;2509;49.902;8.600;2023-03-03T09:37:49;6.50;99.90
4985;DHT22;2509;49.902;8.600;2023-03-03T09:41:02;6.60;99.90
4985;DHT22;2509;49.902;8.600;2023-03-03T09:48:07;6.70;99.90
4985;DHT22;2509;49.902;8.600;2023-03-03T09:51:37;6.70;99.90
4985;DHT22;2509;49.902;8.600;2023-03-03T09:54:50;6.90;99.90
4985;DHT22;2509;49.902;8.600;2023-03-03T09:58:04;7.00;99.90
4985;DHT22;2509;49.902;8.600;2023-03-03T10:01:23;7.10;99.90
4985;DHT22;2509;49.902;8.600;2023-03-03T10:04:50;7.30;99.90
4985;DHT22;2509;49.902;8.600;2023-03-03T10:08:09;7.50;99.90
4985;DHT22;2509;49.902;8.600;2023-03-03T10:11:17;7.60;99.90
4985;DHT22;2509;49.902;8.600;2023-03-03T10:14:48;7.80;99.90
4985;DHT22;2509;49.902;8.600;2023-03-03T10:17:56;7.90;99.90
4985;DHT22;2509;49.902;8.600;2023-03-03T10:21:08;8.00;99.90
4985;DHT22;2509;49.902;8.600;2023-03-03T10:24:24;8.10;99.90
4985;DHT22;2509;49.902;8.600;2023-03-03T10:27:39;8.20;99.90
4985;DHT22;2509;49.902;8.600;2023-03-03T10:30:51;8.40;99.90
4985;DHT22;2509;49.902;8.600;2023-03-03T10:33:58;8.60;99.90
4985;DHT22;2509;49.902;8.600;2023-03-03T10:37:05;8.70;99.90
4985;DHT22;2509;49.902;8.600;2023-03-03T10:40:16;8.90;99.90
4985;DHT22;2509;49.902;8.600;2023-03-03T10:43:56;9.00;99.90
4985;DHT22;2509;49.902;8.600;2023-03-03T10:50:42;9.30;99.90
4985;DHT22;2509;49.902;8.600;2023-03-03T10:53:55;9.30;99.90
4985;DHT22;2509;49.902;8.600;2023-03-03T10:57:03;9.30;99.90
4985;DHT22;2509;49.902;8.600;2023-03-03T11:00:18;9.50;99.90
4985;DHT22;2509;49.902;8.600;2023-03-03T11:03:44;9.60;99.90
4985;DHT22;2509;49.902;8.600;2023-03-03T11:06:54;9.60;99.90
4985;DHT22;2509;49.902;8.600;2023-03-03T11:10:05;9.70;99.90
4985;DHT22;2509;49.902;8.600;2023-03-03T11:13:20;9.60;99.90
4985;DHT22;2509;49.902;8.600;2023-03-03T11:16:43;9.80;99.90
4985;DHT22;2509;49.902;8.600;2023-03-03T11:20:00;9.90;99.90
4985;DHT22;2509;49.902;8.600;2023-03-03T11:23:09;10.00;99.90
4985;DHT22;2509;49.902;8.600;2023-03-03T11:26:28;10.20;99.90
4985;DHT22;2509;49.902;8.600;2023-03-03T11:29:56;10.30;99.90
4985;DHT22;2509;49.902;8.600;2023-03-03T11:33:02;10.40;99.90
4985;DHT22;2509;49.902;8.600;2023-03-03T11:36:11;10.40;99.90
4985;DHT22;2509;49.902;8.600;2023-03-03T11:39:19;10.60;99.90
4985;DHT22;2509;49.902;8.600;2023-03-03T11:42:26;10.80;99.90
4985;DHT22;2509;49.902;8.600;2023-03-03T11:45:34;11.10;99.90
4985;DHT22;2509;49.902;8.600;2023-03-03T11:48:45;11.60;99.90
4985;DHT22;2509;49.902;8.600;2023-03-03T11:51:54;11.90;99.90
4985;DHT22;2509;49.902;8.600;2023-03-03T11:55:03;12.30;99.50
4985;DHT22;2509;49.902;8.600;2023-03-03T11:58:12;12.70;97.70
4985;DHT22;2509;49.902;8.600;2023-03-03T12:01:21;12.60;97.60
4985;DHT22;2509;49.902;8.600;2023-03-03T12:04:29;12.70;98.30
4985;DHT22;2509;49.902;8.600;2023-03-03T12:07:39;13.50;97.40
4985;DHT22;2509;49.902;8.600;2023-03-03T12:10:47;13.60;93.90
4985;DHT22;2509;49.902;8.600;2023-03-03T12:13:57;13.20;95.30
4985;DHT22;2509;49.902;8.600;2023-03-03T12:17:04;13.60;95.10
4985;DHT22;2509;49.902;8.600;2023-03-03T12:20:15;14.20;95.10
4985;DHT22;2509;49.902;8.600;2023-03-03T12:23:36;14.70;93.60
4985;DHT22;2509;49.902;8.600;2023-03-03T12:26:48;15.70;91.60
4985;DHT22;2509;49.902;8.600;2023-03-03T12:30:01;16.40;88.70
4985;DHT22;2509;49.902;8.600;2023-03-03T12:33:18;15.90;89.40
4985;DHT22;2509;49.902;8.600;2023-03-03T12:36:47;16.40;87.70
4985;DHT22;2509;49.902;8.600;2023-03-03T12:40:04;15.70;89.30
4985;DHT22;2509;49.902;8.600;2023-03-03T12:43:45;15.80;89.10
4985;DHT22;2509;49.902;8.600;2023-03-03T12:47:10;16.30;87.50
4985;DHT22;2509;49.902;8.600;2023-03-03T12:58:57;16.80;85.90
4985;DHT22;2509;49.902;8.600;2023-03-03T13:06:25;17.00;85.50
4985;DHT22;2509;49.902;8.600;2023-03-03T13:10:32;17.30;84.90
4985;DHT22;2509;49.902;8.600;2023-03-03T13:13:57;17.10;84.70
4985;DHT22;2509;49.902;8.600;2023-03-03T13:17:20;17.40;83.90
4985;DHT22;2509;49.902;8.600;2023-03-03T13:20:33;17.90;83.40
4985;DHT22;2509;49.902;8.600;2023-03-03T13:23:47;18.20;82.30
4985;DHT22;2509;49.902;8.600;2023-03-03T13:26:54;18.20;81.20
4985;DHT22;2509;49.902;8.600;2023-03-03T13:30:01;17.40;82.10
4985;DHT22;2509;49.902;8.600;2023-03-03T13:33:08;17.20;82.80
4985;DHT22;2509;49.902;8.600;2023-03-03T13:36:14;18.30;81.60
4985;DHT22;2509;49.902;8.600;2023-03-03T13:39:21;18.10;80.60
4985;DHT22;2509;49.902;8.600;2023-03-03T13:42:28;18.00;80.90
4985;DHT22;2509;49.902;8.600;2023-03-03T13:45:38;18.00;80.90
4985;DHT22;2509;49.902;8.600;2023-03-03T13:49:02;17.60;81.60
4985;DHT22;2509;49.902;8.600;2023-03-03T13:52:08;17.90;81.10
4985;DHT22;2509;49.902;8.600;2023-03-03T13:55:20;17.90;79.90
4985;DHT22;2509;49.902;8.600;2023-03-03T13:58:27;18.00;80.40
4985;DHT22;2509;49.902;8.600;2023-03-03T14:01:46;17.10;82.00
4985;DHT22;2509;49.902;8.600;2023-03-03T14:04:53;17.10;82.40
4985;DHT22;2509;49.902;8.600;2023-03-03T14:08:02;17.20;82.40
4985;DHT22;2509;49.902;8.600;2023-03-03T14:11:10;17.90;81.10
4985;DHT22;2509;49.902;8.600;2023-03-03T14:14:21;18.10;81.00
4985;DHT22;2509;49.902;8.600;2023-03-03T14:17:31;18.40;79.80
4985;DHT22;2509;49.902;8.600;2023-03-03T14:20:39;17.70;79.60
4985;DHT22;2509;49.902;8.600;2023-03-03T14:23:49;16.90;80.40
4985;DHT22;2509;49.902;8.600;2023-03-03T14:26:53;16.60;81.40
4985;DHT22;2509;49.902;8.600;2023-03-03T14:29:55;15.80;82.60
4985;DHT22;2509;49.902;8.600;2023-03-03T14:33:18;15.60;83.60
4985;DHT22;2509;49.902;8.600;2023-03-03T14:36:26;15.80;83.30
4985;DHT22;2509;49.902;8.600;2023-03-03T14:39:31;16.60;82.10
4985;DHT22;2509;49.902;8.600;2023-03-03T14:42:36;16.30;81.90
4985;DHT22;2509;49.902;8.600;2023-03-03T14:45:40;15.90;83.70
4985;DHT22;2509;49.902;8.600;2023-03-03T14:48:51;16.30;82.40
4985;DHT22;2509;49.902;8.600;2023-03-03T14:52:00;16.30;83.10
4985;DHT22;2509;49.902;8.600;2023-03-03T14:55:30;16.30;83.30
4985;DHT22;2509;49.902;8.600;2023-03-03T14:58:37;16.20;82.70
4985;DHT22;2509;49.902;8.600;2023-03-03T15:01:41;15.50;83.80
4985;DHT22;2509;49.902;8.600;2023-03-03T15:04:43;15.30;84.70
4985;DHT22;2509;49.902;8.600;2023-03-03T15:07:46;15.40;84.00
4985;DHT22;2509;49.902;8.600;2023-03-03T15:10:50;15.20;84.70
4985;DHT22;2509;49.902;8.600;2023-03-03T15:13:52;14.90;84.80
4985;DHT22;2509;49.902;8.600;2023-03-03T15:16:56;15.00;84.80
4985;DHT22;2509;49.902;8.600;2023-03-03T15:20:38;14.80;85.10
4985;DHT22;2509;49.902;8.600;2023-03-03T15:23:51;14.90;85.20
4985;DHT22;2509;49.902;8.600;2023-03-03T15:27:01;15.40;84.90
4985;DHT22;2509;49.902;8.600;2023-03-03T15:30:16;14.70;84.80
4985;DHT22;2509;49.902;8.600;2023-03-03T15:33:26;14.50;86.00
4985;DHT22;2509;49.902;8.600;2023-03-03T15:36:35;14.40;85.10
4985;DHT22;2509;49.902;8.600;2023-03-03T15:39:43;14.20;85.70
4985;DHT22;2509;49.902;8.600;2023-03-03T15:42:54;14.10;85.80
4985;DHT22;2509;49.902;8.600;2023-03-03T15:46:05;14.00;86.20
4985;DHT22;2509;49.902;8.600;2023-03-03T15:49:19;14.10;85.60
4985;DHT22;2509;49.902;8.600;2023-03-03T15:52:37;14.00;85.10
4985;DHT22;2509;49.902;8.600;2023-03-03T15:55:50;13.30;87.10
4985;DHT22;2509;49.902;8.600;2023-03-03T15:59:24;12.70;88.70
4985;DHT22;2509;49.902;8.600;2023-03-03T16:02:42;12.10;90.30
4985;DHT22;2509;49.902;8.600;2023-03-03T16:05:52;11.30;92.60
4985;DHT22;2509;49.902;8.600;2023-03-03T16:08:59;10.90;93.60
4985;DHT22;2509;49.902;8.600;2023-03-03T16:12:12;10.80;94.40
4985;DHT22;2509;49.902;8.600;2023-03-03T16:15:36;10.70;94.70
4985;DHT22;2509;49.902;8.600;2023-03-03T16:18:52;10.50;95.00
4985;DHT22;2509;49.902;8.600;2023-03-03T16:22:09;10.20;95.50
4985;DHT22;2509;49.902;8.600;2023-03-03T16:25:21;10.10;96.20
4985;DHT22;2509;49.902;8.600;2023-03-03T16:28:33;9.90;96.60
4985;DHT22;2509;49.902;8.600;2023-03-03T16:31:43;9.90;96.70
4985;DHT22;2509;49.902;8.600;2023-03-03T16:34:54;9.80;97.00
4985;DHT22;2509;49.902;8.600;2023-03-03T16:37:59;9.70;97.20
4985;DHT22;2509;49.902;8.600;2023-03-03T16:41:03;9.60;97.30
4985;DHT22;2509;49.902;8.600;2023-03-03T16:44:21;9.50;97.80
4985;DHT22;2509;49.902;8.600;2023-03-03T16:47:41;9.30;98.50
4985;DHT22;2509;49.902;8.600;2023-03-03T16:50:49;9.10;99.50
4985;DHT22;2509;49.902;8.600;2023-03-03T16:54:00;8.90;99.30
4985;DHT22;2509;49.902;8.600;2023-03-03T16:57:10;8.90;99.80
4985;DHT22;2509;49.902;8.600;2023-03-03T17:00:19;8.80;99.90
4985;DHT22;2509;49.902;8.600;2023-03-03T17:03:36;8.70;99.90
4985;DHT22;2509;49.902;8.600;2023-03-03T17:06:45;8.60;99.90
4985;DHT22;2509;49.902;8.600;2023-03-03T17:10:04;8.40;99.90
4985;DHT22;2509;49.902;8.600;2023-03-03T17:13:27;8.20;99.90
4985;DHT22;2509;49.902;8.600;2023-03-03T17:16:40;8.10;99.90
4985;DHT22;2509;49.902;8.600;2023-03-03T17:20:00;7.90;99.90
4985;DHT22;2509;49.902;8.600;2023-03-03T17:23:17;7.80;99.90
4985;DHT22;2509;49.902;8.600;2023-03-03T17:26:32;7.80;99.90
4985;DHT22;2509;49.902;8.600;2023-03-03T17:29:46;7.80;99.90
4985;DHT22;2509;49.902;8.600;2023-03-03T17:33:09;7.80;99.90
4985;DHT22;2509;49.902;8.600;2023-03-03T17:36:31;7.80;99.90
4985;DHT22;2509;49.902;8.600;2023-03-03T17:39:49;7.70;99.90
4985;DHT22;2509;49.902;8.600;2023-03-03T17:43:00;7.60;99.90
4985;DHT22;2509;49.902;8.600;2023-03-03T17:46:13;7.50;99.90
4985;DHT22;2509;49.902;8.600;2023-03-03T17:49:45;7.40;99.90
4985;DHT22;2509;49.902;8.600;2023-03-03T17:56:27;7.10;99.90
4985;DHT22;2509;49.902;8.600;2023-03-03T18:07:32;6.70;99.90
4985;DHT22;2509;49.902;8.600;2023-03-03T18:11:03;6.60;99.90
4985;DHT22;2509;49.902;8.600;2023-03-03T18:14:30;6.60;99.90
4985;DHT22;2509;49.902;8.600;2023-03-03T18:17:50;6.50;99.90
4985;DHT22;2509;49.902;8.600;2023-03-03T18:21:08;6.30;99.90
4985;DHT22;2509;49.902;8.600;2023-03-03T18:24:29;6.20;99.90
4985;DHT22;2509;49.902;8.600;2023-03-03T18:27:38;6.10;99.90
4985;DHT22;2509;49.902;8.600;2023-03-03T18:30:57;6.10;99.90
4985;DHT22;2509;49.902;8.600;2023-03-03T18:34:02;6.10;99.90
4985;DHT22;2509;49.902;8.600;2023-03-03T18:37:10;6.10;99.90
4985;DHT22;2509;49.902;8.600;2023-03-03T18:40:33;6.00;99.90
4985;DHT22;2509;49.902;8.600;2023-03-03T18:43:48;6.00;99.90
4985;DHT22;2509;49.902;8.600;2023-03-03T18:46:52;5.90;99.90
4985;DHT22;2509;49.902;8.600;2023-03-03T18:50:14;5.90;99.90
4985;DHT22;2509;49.902;8.600;2023-03-03T18:53:20;5.90;99.90
4985;DHT22;2509;49.902;8.600;2023-03-03T18:56:42;5.90;99.90
4985;DHT22;2509;49.902;8.600;2023-03-03T18:59:53;5.90;99.90
4985;DHT22;2509;49.902;8.600;2023-03-03T19:02:57;5.90;99.90
4985;DHT22;2509;49.902;8.600;2023-03-03T19:06:00;5.90;99.90
4985;DHT22;2509;49.902;8.600;2023-03-03T19:09:03;5.80;99.90
4985;DHT22;2509;49.902;8.600;2023-03-03T19:12:08;5.80;99.90
4985;DHT22;2509;49.902;8.600;2023-03-03T19:15:45;5.70;99.90
4985;DHT22;2509;49.902;8.600;2023-03-03T19:18:58;5.60;99.90
4985;DHT22;2509;49.902;8.600;2023-03-03T19:22:23;5.50;99.90
4985;DHT22;2509;49.902;8.600;2023-03-03T19:25:27;5.40;99.90
4985;DHT22;2509;49.902;8.600;2023-03-03T19:28:38;5.30;99.90
4985;DHT22;2509;49.902;8.600;2023-03-03T19:31:47;5.30;99.90
4985;DHT22;2509;49.902;8.600;2023-03-03T19:34:59;5.20;99.90
4985;DHT22;2509;49.902;8.600;2023-03-03T19:38:12;5.10;99.90
4985;DHT22;2509;49.902;8.600;2023-03-03T19:41:25;5.10;99.90
4985;DHT22;2509;49.902;8.600;2023-03-03T19:44:42;5.10;99.90
4985;DHT22;2509;49.902;8.600;2023-03-03T19:47:50;5.00;99.90
4985;DHT22;2509;49.902;8.600;2023-03-03T19:51:00;5.00;99.90
4985;DHT22;2509;49.902;8.600;2023-03-03T19:54:18;4.90;99.90
4985;DHT22;2509;49.902;8.600;2023-03-03T19:57:39;4.90;99.90
4985;DHT22;2509;49.902;8.600;2023-03-03T20:00:46;4.90;99.90
4985;DHT22;2509;49.902;8.600;2023-03-03T20:07:26;4.70;99.90
4985;DHT22;2509;49.902;8.600;2023-03-03T20:10:38;4.60;99.90
4985;DHT22;2509;49.902;8.600;2023-03-03T20:13:50;4.60;99.90
4985;DHT22;2509;49.902;8.600;2023-03-03T20:17:03;4.50;99.90
4985;DHT22;2509;49.902;8.600;2023-03-03T20:20:27;4.40;99.90
4985;DHT22;2509;49.902;8.600;2023-03-03T20:23:40;4.40;99.90
4985;DHT22;2509;49.902;8.600;2023-03-03T20:26:51;4.40;99.90
4985;DHT22;2509;49.902;8.600;2023-03-03T20:30:06;4.30;99.90
4985;DHT22;2509;49.902;8.600;2023-03-03T20:33:18;4.30;99.90
4985;DHT22;2509;49.902;8.600;2023-03-03T20:36:27;4.20;99.90
4985;DHT22;2509;49.902;8.600;2023-03-03T20:39:42;4.20;99.90
4985;DHT22;2509;49.902;8.600;2023-03-03T20:42:55;4.20;99.90
4985;DHT22;2509;49.902;8.600;2023-03-03T20:46:06;4.10;99.90
4985;DHT22;2509;49.902;8.600;2023-03-03T20:49:34;4.10;99.90
4985;DHT22;2509;49.902;8.600;2023-03-03T20:52:46;4.10;99.90
4985;DHT22;2509;49.902;8.600;2023-03-03T20:55:58;4.10;99.90
4985;DHT22;2509;49.902;8.600;2023-03-03T20:59:14;4.00;99.90
4985;DHT22;2509;49.902;8.600;2023-03-03T21:02:22;3.90;99.90
4985;DHT22;2509;49.902;8.600;2023-03-03T21:05:26;3.90;99.90
4985;DHT22;2509;49.902;8.600;2023-03-03T21:08:41;3.80;99.90
4985;DHT22;2509;49.902;8.600;2023-03-03T21:11:43;3.80;99.90
4985;DHT22;2509;49.902;8.600;2023-03-03T21:14:58;3.80;99.90
4985;DHT22;2509;49.902;8.600;2023-03-03T21:18:20;3.80;99.90
4985;DHT22;2509;49.902;8.600;2023-03-03T21:21:24;3.80;99.90
4985;DHT22;2509;49.902;8.600;2023-03-03T21:24:46;3.70;99.90